Time;durP1;ratioP1;P1;durP2;ratioP2;P2;SDS_P1;SDS_P2;PMS_P1;PMS_P2;Temp;Humidity;BMP_temperature;BMP_pressure;BME280_temperature;BME280_humidity;BME280_pressure;Samples;Min_cycle;Max_cycle;Signal;HPM_P1;HPM_P2
2021/05/30 00:02:49;;;;;;;4.08;3.15;;;;;;;10.84;68.96;100295.97;260349;1107;103010;-69
2021/05/30 00:07:58;;;;;;;4.48;3.98;;;;;;;10.83;69.55;100302.33;260764;1108;103079;-69
2021/05/30 00:13:04;;;;;;;2.95;2.73;;;;;;;10.76;69.26;100302.40;260118;1107;102962;-68
2021/05/30 00:18:09;;;;;;;5.40;3.50;;;;;;;10.72;69.43;100306.55;261497;1107;103323;-70
2021/05/30 00:23:14;;;;;;;4.98;3.73;;;;;;;10.78;69.35;100307.52;261519;1101;103235;-69
2021/05/30 00:28:19;;;;;;;3.43;3.13;;;;;;;10.79;69.81;100293.96;260154;1107;102984;-68
2021/05/30 00:33:23;;;;;;;3.48;3.23;;;;;;;10.79;70.01;100299.30;260566;1107;103224;-67
2021/05/30 00:38:28;;;;;;;4.07;3.27;;;;;;;10.77;69.56;100297.88;262679;1107;101532;-66
2021/05/30 00:43:53;;;;;;;4.17;3.77;;;;;;;10.74;69.69;100291.14;262711;1107;101332;-65
2021/05/30 00:48:57;;;;;;;4.40;3.57;;;;;;;10.78;70.01;100291.52;262444;1107;101610;-66
2021/05/30 00:54:05;;;;;;;3.77;3.40;;;;;;;10.75;69.82;100303.44;262635;1107;101481;-66
2021/05/30 00:59:12;;;;;;;3.60;3.30;;;;;;;10.76;70.10;100293.59;262454;1107;103657;-66
2021/05/30 01:04:17;;;;;;;;;;;;;;;10.69;70.02;100299.02;261995;1107;102965;-68
2021/05/30 01:09:26;;;;;;;3.20;2.90;;;;;;;10.63;70.45;100304.41;261364;1107;102943;-69
2021/05/30 01:14:35;;;;;;;5.88;4.05;;;;;;;10.61;70.06;100303.81;261239;1107;103669;-69
2021/05/30 01:19:44;;;;;;;5.75;5.00;;;;;;;10.64;70.32;100300.70;261536;1107;102967;-69
2021/05/30 01:24:48;;;;;;;4.68;4.28;;;;;;;10.68;70.16;100317.90;261030;1107;103071;-69
2021/05/30 01:29:52;;;;;;;3.48;3.18;;;;;;;10.65;70.90;100313.82;261218;1107;102971;-69
2021/05/30 01:34:57;;;;;;;4.10;3.70;;;;;;;10.61;70.77;100315.30;261269;1107;103056;-67
2021/05/30 01:40:02;;;;;;;7.10;4.40;;;;;;;10.56;70.49;100311.66;260866;1107;103356;-68
2021/05/30 01:45:08;;;;;;;6.13;4.40;;;;;;;10.55;71.02;100320.69;261015;1107;103034;-68
2021/05/30 01:50:17;;;;;;;5.23;3.83;;;;;;;10.55;71.41;100324.16;261338;1107;102953;-69
2021/05/30 02:00:26;;;;;;;3.95;3.58;;;;;;;10.45;71.72;100339.84;259989;1107;102966;-68
2021/05/30 02:05:32;;;;;;;4.73;4.23;;;;;;;10.40;71.40;100331.67;260455;1103;103075;-68
2021/05/30 02:10:37;;;;;;;5.55;4.23;;;;;;;10.41;71.82;100336.78;260247;1103;103048;-68
2021/05/30 02:15:43;;;;;;;5.30;4.33;;;;;;;10.36;71.68;100344.65;260140;1107;102941;-68
2021/05/30 02:20:48;;;;;;;4.20;3.43;;;;;;;10.28;71.89;100342.25;260627;1107;102968;-68
2021/05/30 02:25:54;;;;;;;4.33;3.93;;;;;;;10.22;71.99;100342.30;261896;1107;103027;-68
2021/05/30 02:30:59;;;;;;;3.98;3.58;;;;;;;10.23;71.44;100352.73;261458;1103;103036;-66
2021/05/30 02:36:05;;;;;;;6.83;3.88;;;;;;;10.18;71.38;100347.21;261241;1107;103074;-67
2021/05/30 02:41:09;;;;;;;6.67;4.33;;;;;;;10.11;72.14;100357.91;262611;1107;101557;-64
2021/05/30 02:46:14;;;;;;;4.47;4.07;;;;;;;10.07;71.79;100355.92;262610;1107;101779;-64
2021/05/30 02:51:19;;;;;;;5.23;4.05;;;;;;;10.06;71.83;100355.11;262600;1107;101515;-65
2021/05/30 02:56:25;;;;;;;3.90;3.50;;;;;;;10.07;71.69;100358.59;262657;1107;101327;-65
2021/05/30 03:01:29;;;;;;;9.70;4.25;;;;;;;10.07;71.46;100361.25;261725;1102;102956;-70
2021/05/30 03:06:33;;;;;;;4.35;3.95;;;;;;;10.06;71.58;100363.09;260813;1107;102973;-69
2021/05/30 03:11:39;;;;;;;5.13;4.13;;;;;;;10.06;71.26;100362.28;261199;1107;102943;-69
2021/05/30 03:16:44;;;;;;;4.58;3.30;;;;;;;10.02;72.10;100359.23;261269;1107;102939;-70
2021/05/30 03:21:49;;;;;;;4.15;3.75;;;;;;;10.06;71.93;100367.61;260404;1107;103374;-67
2021/05/30 03:26:54;;;;;;;3.33;3.05;;;;;;;10.07;71.37;100369.24;260023;1107;102969;-68
2021/05/30 03:31:58;;;;;;;4.85;3.75;;;;;;;10.15;71.24;100366.29;260108;1107;103064;-67
2021/05/30 03:37:02;;;;;;;4.63;3.73;;;;;;;10.22;71.43;100364.43;260118;1107;103007;-68
2021/05/30 03:42:10;;;;;;;3.05;2.85;;;;;;;10.25;71.71;100366.66;260073;1107;102985;-68
2021/05/30 03:47:16;;;;;;;4.75;3.08;;;;;;;10.20;71.19;100374.48;260458;1102;102970;-66
2021/05/30 03:52:21;;;;;;;4.45;3.60;;;;;;;10.20;71.56;100379.81;260431;1107;103346;-67
2021/05/30 03:57:26;;;;;;;3.55;3.25;;;;;;;10.37;71.49;100374.78;260508;1107;103049;-68
2021/05/30 04:02:31;;;;;;;2.70;2.50;;;;;;;10.55;71.35;100385.48;260581;1107;103103;-67
2021/05/30 04:07:36;;;;;;;2.08;1.98;;;;;;;10.77;71.00;100391.22;260770;1107;102983;-68
2021/05/30 04:12:42;;;;;;;2.75;2.58;;;;;;;10.82;70.54;100394.05;260206;1108;102943;-68
2021/05/30 04:17:47;;;;;;;5.45;3.20;;;;;;;10.93;70.10;100395.18;261042;1107;102939;-68
2021/05/30 04:22:53;;;;;;;5.00;2.78;;;;;;;11.42;69.09;100392.35;261136;1107;102990;-69
2021/05/30 04:27:58;;;;;;;3.08;1.78;;;;;;;12.13;68.30;100390.81;261078;1107;103113;-68
2021/05/30 04:33:03;;;;;;;3.73;2.43;;;;;;;11.80;68.23;100397.44;259970;1107;102991;-67
2021/05/30 04:38:09;;;;;;;2.48;2.33;;;;;;;12.42;67.46;100397.14;260312;1102;103110;-67
2021/05/30 04:43:14;;;;;;;4.40;2.60;;;;;;;13.67;65.84;100402.03;261459;1107;103136;-65
2021/05/30 04:48:20;;;;;;;1.70;1.60;;;;;;;16.09;62.68;100403.98;262626;1107;101411;-66
2021/05/30 04:53:25;;;;;;;2.20;2.03;;;;;;;16.28;61.71;100406.28;262689;1107;101023;-66
2021/05/30 04:58:30;;;;;;;2.10;2.00;;;;;;;16.08;60.91;100401.54;262683;1107;101499;-65
2021/05/30 05:03:35;;;;;;;2.40;2.20;;;;;;;18.15;58.09;100395.67;262277;1107;102843;-66
2021/05/30 05:08:39;;;;;;;2.73;1.85;;;;;;;22.15;52.95;100394.78;261833;1107;101339;-66
2021/05/30 05:13:45;;;;;;;1.83;1.73;;;;;;;25.74;49.40;100407.91;261752;1107;101294;-66
2021/05/30 05:18:50;;;;;;;3.53;2.28;;;;;;;27.70;45.33;100417.92;260817;1107;103048;-67
2021/05/30 05:23:55;;;;;;;2.15;2.05;;;;;;;29.59;41.76;100417.11;261397;1107;102968;-67
2021/05/30 05:29:02;;;;;;;1.50;1.40;;;;;;;31.02;39.00;100425.47;261555;1108;102976;-67
2021/05/30 05:34:08;;;;;;;1.55;1.45;;;;;;;32.53;36.32;100427.66;261485;1107;103108;-67
2021/05/30 05:39:13;;;;;;;1.70;1.60;;;;;;;33.29;33.95;100432.20;261484;1108;102971;-67
2021/05/30 05:44:19;;;;;;;1.78;1.13;;;;;;;33.95;32.96;100433.53;261302;1107;103314;-69
2021/05/30 05:49:25;;;;;;;1.68;1.10;;;;;;;34.80;31.34;100432.97;260934;1107;102942;-68
2021/05/30 05:54:29;;;;;;;1.53;1.20;;;;;;;35.42;29.06;100434.69;260444;1107;103007;-68
2021/05/30 05:59:35;;;;;;;1.08;1.08;;;;;;;35.71;28.21;100443.97;260903;1107;103002;-68
2021/05/30 06:04:43;;;;;;;0.80;0.80;;;;;;;35.41;26.73;100451.70;260545;1107;102976;-68
2021/05/30 06:09:50;;;;;;;1.08;1.08;;;;;;;34.60;27.44;100455.28;261769;1107;102963;-71
2021/05/30 06:14:56;;;;;;;1.20;1.20;;;;;;;33.49;27.06;100448.67;260334;1107;103000;-70
2021/05/30 06:20:03;;;;;;;1.80;1.70;;;;;;;31.26;27.73;100452.05;260158;1107;103092;-71
2021/05/30 06:25:09;;;;;;;1.00;1.00;;;;;;;29.39;28.49;100456.45;261318;1107;103010;-71
2021/05/30 06:30:14;;;;;;;1.40;1.40;;;;;;;26.18;30.30;100462.27;261223;1106;103406;-70
2021/05/30 06:35:20;;;;;;;2.98;1.80;;;;;;;25.25;32.57;100460.91;260153;1103;103013;-70
2021/05/30 06:40:25;;;;;;;2.03;1.63;;;;;;;23.97;34.04;100457.75;260621;1107;102997;-70
2021/05/30 06:45:28;;;;;;;2.30;1.83;;;;;;;23.16;35.10;100449.33;262004;1107;102946;-70
2021/05/30 06:50:31;;;;;;;2.85;2.48;;;;;;;22.16;36.27;100449.89;262319;1107;102568;-70
2021/05/30 06:55:35;;;;;;;3.15;1.83;;;;;;;21.83;37.23;100452.49;262115;1107;103064;-67
2021/05/30 07:00:40;;;;;;;3.43;2.50;;;;;;;21.40;38.03;100459.02;262193;1107;101477;-67
2021/05/30 07:05:44;;;;;;;2.10;2.00;;;;;;;20.73;39.08;100464.27;262682;1107;101292;-68
2021/05/30 07:10:49;;;;;;;2.00;1.90;;;;;;;20.05;40.29;100463.37;262212;1107;103045;-67
2021/05/30 07:15:53;;;;;;;2.10;2.00;;;;;;;20.28;40.18;100464.57;261646;1101;103121;-67
2021/05/30 07:20:59;;;;;;;2.03;1.93;;;;;;;20.12;41.27;100467.39;261607;1107;102936;-67
2021/05/30 07:26:04;;;;;;;2.35;2.20;;;;;;;20.85;41.56;100474.71;261727;1107;102968;-67
2021/05/30 07:31:10;;;;;;;1.50;1.50;;;;;;;21.20;41.30;100478.98;261433;1107;102939;-67
2021/05/30 07:36:15;;;;;;;1.88;1.78;;;;;;;21.12;41.00;100483.13;261557;1107;103027;-68
2021/05/30 07:41:20;;;;;;;2.13;1.63;;;;;;;21.15;41.59;100487.97;261900;1106;102934;-68
2021/05/30 07:46:25;;;;;;;1.77;1.70;;;;;;;21.40;41.43;100481.50;261631;1107;102939;-67
2021/05/30 07:51:30;;;;;;;1.73;1.63;;;;;;;21.33;41.69;100483.77;261347;1107;102946;-67
2021/05/30 07:56:37;;;;;;;2.00;1.75;;;;;;;21.41;41.73;100495.87;261546;1107;102868;-67
2021/05/30 08:01:43;;;;;;;1.80;1.70;;;;;;;21.93;41.64;100494.98;261368;1107;103091;-68
2021/05/30 08:06:48;;;;;;;2.80;1.73;;;;;;;22.01;41.55;100496.28;260949;1107;103227;-68
2021/05/30 08:11:54;;;;;;;6.10;2.30;;;;;;;22.06;41.16;100493.47;261567;1107;103104;-67
2021/05/30 08:16:59;;;;;;;2.25;2.15;;;;;;;21.61;40.83;100492.95;261078;1107;102975;-67
2021/05/30 08:22:04;;;;;;;2.73;2.53;;;;;;;20.94;41.43;100496.59;261271;1107;103056;-67
2021/05/30 08:27:08;;;;;;;2.88;2.55;;;;;;;20.38;42.12;100488.91;261839;1107;102971;-67
2021/05/30 08:32:14;;;;;;;1.50;1.40;;;;;;;20.16;42.92;100497.42;261409;1107;102941;-68
2021/05/30 08:37:19;;;;;;;3.00;2.48;;;;;;;19.90;43.44;100496.72;260894;1107;103077;-67
2021/05/30 08:42:24;;;;;;;2.17;2.07;;;;;;;19.57;44.06;100509.02;262529;1107;102938;-67
2021/05/30 08:47:28;;;;;;;2.08;1.88;;;;;;;19.59;44.06;100498.73;262178;1107;101337;-67
2021/05/30 08:52:33;;;;;;;2.37;2.27;;;;;;;19.72;44.55;100487.34;262550;1107;102567;-67
2021/05/30 08:57:40;;;;;;;2.08;1.88;;;;;;;20.39;44.96;100485.11;262554;1107;102679;-68
2021/05/30 09:02:44;;;;;;;3.48;2.50;;;;;;;20.77;44.02;100497.02;261899;1107;103068;-67
2021/05/30 09:07:50;;;;;;;2.54;2.34;;;;;;;20.51;43.10;100499.09;262462;1107;102782;-68
2021/05/30 09:13:16;;;;;;;3.97;2.60;;;;;;;20.17;43.52;100493.63;261836;1107;103010;-67
2021/05/30 09:18:35;;;;;;;1.93;1.80;;;;;;;20.01;44.17;100494.78;261483;1107;102971;-67
2021/05/30 09:23:47;;;;;;;2.13;2.03;;;;;;;19.66;44.42;100491.14;262111;1107;102944;-67
2021/05/30 09:29:24;;;;;;;2.33;2.15;;;;;;;19.66;44.69;100493.84;260987;1107;103011;-67
2021/05/30 09:34:34;;;;;;;2.00;1.90;;;;;;;19.35;45.05;100486.89;260460;1107;103071;-66
2021/05/30 09:39:44;;;;;;;3.03;2.43;;;;;;;19.46;45.54;100499.30;260901;1107;103045;-67
2021/05/30 09:45:11;;;;;;;4.35;2.45;;;;;;;19.20;45.29;100495.05;260375;1102;103017;-66
2021/05/30 09:50:19;;;;;;;2.00;1.63;;;;;;;19.26;45.60;100499.36;260448;1103;103243;-67
2021/05/30 09:55:33;;;;;;;3.55;2.08;;;;;;;19.20;45.45;100489.64;260733;1107;103030;-67
2021/05/30 10:00:39;;;;;;;1.68;1.58;;;;;;;19.24;45.59;100494.23;261064;1107;107662;-66
2021/05/30 10:05:44;;;;;;;2.00;1.88;;;;;;;19.64;45.14;100487.09;260999;1107;102998;-67
2021/05/30 10:10:49;;;;;;;3.08;1.83;;;;;;;20.00;43.96;100485.05;261055;1107;102970;-68
2021/05/30 10:15:54;;;;;;;5.30;2.00;;;;;;;20.18;44.72;100478.97;261055;1107;103274;-67
2021/05/30 10:21:00;;;;;;;2.03;1.87;;;;;;;20.27;43.36;100480.01;261378;1107;102966;-67
2021/05/30 10:26:19;;;;;;;1.50;1.40;;;;;;;20.04;42.25;100480.70;262006;1107;102957;-67
2021/05/30 10:31:29;;;;;;;2.15;1.63;;;;;;;19.62;42.53;100470.33;261770;1107;102941;-67
2021/05/30 10:36:34;;;;;;;5.55;1.25;;;;;;;20.01;42.02;100470.42;262623;1107;101752;-67
2021/05/30 10:41:39;;;;;;;1.78;1.68;;;;;;;19.75;43.04;100470.56;262612;1106;101335;-67
2021/05/30 10:46:50;;;;;;;1.87;1.77;;;;;;;19.39;43.06;100477.95;262190;1107;102744;-67
2021/05/30 10:51:55;;;;;;;4.00;1.75;;;;;;;19.28;43.50;100459.33;262689;1107;102805;-68
2021/05/30 10:57:00;;;;;;;1.70;1.60;;;;;;;19.29;42.82;100466.35;262628;1106;101315;-68
2021/05/30 11:02:13;;;;;;;1.07;0.97;;;;;;;19.34;42.72;100477.97;262554;1107;102629;-67
2021/05/30 11:07:17;;;;;;;1.73;1.37;;;;;;;19.38;42.96;100478.23;262432;1107;101638;-67
2021/05/30 11:12:20;;;;;;;1.95;1.10;;;;;;;18.96;43.07;100483.97;261782;1107;101375;-67
2021/05/30 11:18:01;;;;;;;1.50;1.40;;;;;;;18.14;42.84;100500.09;261724;1107;103053;-67
2021/05/30 11:23:13;;;;;;;5.68;1.48;;;;;;;17.53;43.81;100493.63;260865;1107;103155;-68
2021/05/30 11:28:27;;;;;;;5.90;1.97;;;;;;;17.28;44.67;100496.99;261400;1107;102963;-67
2021/05/30 11:33:41;;;;;;;2.15;2.05;;;;;;;17.22;45.23;100497.22;261642;1107;102931;-67
2021/05/30 11:38:52;;;;;;;1.73;1.63;;;;;;;17.21;45.37;100487.51;261441;1107;102967;-67
2021/05/30 11:44:02;;;;;;;2.55;1.85;;;;;;;17.23;45.57;100493.45;261122;1102;102955;-67
2021/05/30 11:49:22;;;;;;;4.27;1.90;;;;;;;17.28;46.09;100509.66;261396;1107;103772;-66
2021/05/30 11:54:44;;;;;;;2.48;2.28;;;;;;;17.25;45.04;100500.20;261287;1107;102981;-67
2021/05/30 11:59:59;;;;;;;2.58;1.80;;;;;;;17.21;45.11;100504.48;260648;1107;103601;-67
2021/05/30 12:05:16;;;;;;;2.68;2.48;;;;;;;17.27;45.82;100503.45;260546;1107;103081;-67
2021/05/30 12:10:20;;;;;;;1.78;1.68;;;;;;;17.33;45.79;100509.69;261396;1107;103017;-67
2021/05/30 12:15:27;;;;;;;2.05;1.83;;;;;;;17.45;45.92;100503.01;261437;1107;102966;-67
2021/05/30 12:20:34;;;;;;;2.00;1.80;;;;;;;17.56;45.99;100490.41;261705;1107;103078;-69
2021/05/30 12:26:03;;;;;;;2.98;2.03;;;;;;;17.70;46.32;100498.88;260957;1107;102986;-71
2021/05/30 12:31:20;;;;;;;4.58;1.53;;;;;;;17.84;46.40;100489.20;260826;1107;103542;-70
2021/05/30 12:36:38;;;;;;;2.63;2.03;;;;;;;18.09;46.29;100483.07;261818;1107;102031;-68
2021/05/30 12:41:48;;;;;;;3.03;2.73;;;;;;;18.35;46.05;100482.04;262028;1101;103097;-70
2021/05/30 12:46:58;;;;;;;2.67;1.77;;;;;;;18.45;45.75;100483.95;262652;1107;101264;-70
2021/05/30 12:52:18;;;;;;;2.45;2.10;;;;;;;18.43;45.59;100478.81;262605;1107;101433;-69
2021/05/30 12:57:35;;;;;;;2.33;2.10;;;;;;;18.47;45.54;100481.80;262624;1107;101551;-71
2021/05/30 13:02:54;;;;;;;2.17;1.53;;;;;;;18.62;45.07;100471.05;262608;1107;101369;-70
2021/05/30 13:07:59;;;;;;;2.25;1.90;;;;;;;18.98;45.66;100461.01;262027;1107;101940;-67
2021/05/30 13:13:04;;;;;;;2.03;1.83;;;;;;;18.87;44.52;100464.83;260685;1107;102974;-67
2021/05/30 13:18:09;;;;;;;2.00;1.70;;;;;;;18.72;44.53;100468.33;260942;1107;103094;-67
2021/05/30 13:23:28;;;;;;;2.15;2.00;;;;;;;18.54;44.30;100466.16;261242;1107;102940;-68
2021/05/30 13:28:38;;;;;;;1.73;1.63;;;;;;;18.36;44.25;100464.77;260826;1107;103418;-67
2021/05/30 13:33:47;;;;;;;3.55;2.55;;;;;;;18.16;44.49;100464.75;261673;1103;102946;-68
2021/05/30 13:38:54;;;;;;;1.98;1.88;;;;;;;18.11;45.15;100468.23;261208;1103;103103;-69
2021/05/30 13:44:01;;;;;;;3.78;2.15;;;;;;;17.88;44.72;100468.72;260731;1107;103160;-69
2021/05/30 13:49:06;;;;;;;3.23;1.80;;;;;;;17.56;45.49;100478.81;260829;1107;102945;-68
2021/05/30 13:54:09;;;;;;;1.55;1.45;;;;;;;17.42;45.86;100478.49;260297;1107;102971;-69
2021/05/30 13:59:14;;;;;;;1.53;1.38;;;;;;;17.33;46.00;100464.69;260932;1107;102968;-69
2021/05/30 14:04:18;;;;;;;1.93;1.83;;;;;;;17.31;46.40;100455.24;260078;1107;102938;-68
2021/05/30 14:09:22;;;;;;;1.80;1.70;;;;;;;17.29;45.93;100449.30;259975;1107;104413;-68
2021/05/30 14:14:26;;;;;;;6.70;2.13;;;;;;;17.40;46.38;100434.81;260741;1107;102333;-69
2021/05/30 14:19:49;;;;;;;1.88;1.75;;;;;;;17.56;46.24;100436.49;261267;1107;104392;-68
2021/05/30 14:24:53;;;;;;;1.73;1.50;;;;;;;17.90;46.50;100428.81;260685;1103;104847;-67
2021/05/30 14:29:57;;;;;;;5.27;2.07;;;;;;;17.91;46.00;100430.44;261828;1103;102943;-68
2021/05/30 14:35:04;;;;;;;1.73;1.63;;;;;;;17.65;45.87;100447.62;261679;1106;102945;-68
2021/05/30 14:40:11;;;;;;;1.23;1.23;;;;;;;17.37;46.28;100440.73;262573;1107;101721;-68
2021/05/30 14:45:21;;;;;;;1.70;1.58;;;;;;;17.12;46.41;100439.50;262271;1107;103049;-69
2021/05/30 14:50:26;;;;;;;2.00;1.73;;;;;;;16.94;46.97;100439.94;262410;1107;101392;-69
2021/05/30 14:55:34;;;;;;;2.38;2.18;;;;;;;16.86;47.36;100432.33;262551;1107;101542;-69
2021/05/30 15:00:51;;;;;;;1.93;1.67;;;;;;;16.96;47.00;100427.02;262597;1107;101438;-70
2021/05/30 15:05:59;;;;;;;1.53;1.38;;;;;;;16.99;46.70;100423.81;261995;1107;102255;-69
2021/05/30 15:11:05;;;;;;;7.33;2.25;;;;;;;16.94;47.18;100431.86;262239;1107;102933;-68
2021/05/30 15:16:09;;;;;;;2.13;2.00;;;;;;;16.79;47.30;100429.89;261917;1107;102989;-67
2021/05/30 15:21:14;;;;;;;1.40;1.30;;;;;;;16.80;47.46;100442.28;262133;1107;101379;-68
2021/05/30 15:26:18;;;;;;;2.80;1.50;;;;;;;16.87;46.80;100436.65;261515;1107;103097;-66
2021/05/30 15:31:22;;;;;;;1.38;1.18;;;;;;;16.96;45.50;100437.80;261452;1107;102969;-68
2021/05/30 15:36:32;;;;;;;2.33;1.30;;;;;;;17.12;45.54;100428.72;261796;1107;101432;-68
2021/05/30 15:41:37;;;;;;;1.63;1.53;;;;;;;17.30;45.49;100435.56;261220;1107;103042;-67
2021/05/30 15:46:41;;;;;;;1.48;1.40;;;;;;;17.43;45.62;100434.27;261529;1107;102991;-65
2021/05/30 15:51:46;;;;;;;1.55;1.40;;;;;;;17.46;45.34;100436.44;261558;1107;102994;-65
2021/05/30 15:56:51;;;;;;;1.58;1.40;;;;;;;17.45;45.48;100432.93;261367;1103;103097;-65
2021/05/30 16:01:56;;;;;;;1.80;1.70;;;;;;;17.46;45.74;100429.16;261396;1107;103177;-68
2021/05/30 16:07:04;;;;;;;2.18;1.98;;;;;;;17.44;45.63;100436.70;261285;1107;102968;-69
2021/05/30 16:12:10;;;;;;;1.88;1.54;;;;;;;17.36;45.85;100437.22;261535;1106;102862;-68
2021/05/30 16:17:15;;;;;;;2.05;1.25;;;;;;;17.30;46.51;100440.15;261764;1107;103055;-68
2021/05/30 16:22:20;;;;;;;2.13;1.85;;;;;;;17.11;46.16;100429.83;261399;1101;103074;-68
2021/05/30 16:27:25;;;;;;;2.48;1.95;;;;;;;16.93;46.42;100432.11;260788;1107;103096;-67
2021/05/30 16:32:30;;;;;;;9.13;2.18;;;;;;;16.70;46.91;100447.58;261768;1107;102976;-66
2021/05/30 16:37:35;;;;;;;3.25;1.83;;;;;;;16.43;47.86;100438.72;262233;1107;102812;-68
2021/05/30 16:42:40;;;;;;;1.20;1.20;;;;;;;15.99;47.65;100430.76;262145;1103;101602;-68
2021/05/30 16:47:47;;;;;;;1.63;1.53;;;;;;;15.66;48.17;100425.55;261810;1107;103027;-67
2021/05/30 16:52:51;;;;;;;1.03;1.03;;;;;;;15.54;48.63;100427.54;262610;1107;101364;-68
2021/05/30 16:57:55;;;;;;;1.23;1.20;;;;;;;15.40;49.19;100429.77;262405;1107;102701;-69
2021/05/30 17:02:59;;;;;;;1.23;1.23;;;;;;;15.33;49.33;100429.14;262567;1107;103253;-68
2021/05/30 17:08:06;;;;;;;1.53;1.30;;;;;;;15.23;50.06;100437.08;262382;1107;101426;-68
2021/05/30 17:13:13;;;;;;;2.03;1.47;;;;;;;15.11;50.78;100442.55;262624;1107;102318;-65
2021/05/30 17:18:19;;;;;;;2.15;1.70;;;;;;;14.97;50.83;100444.79;262549;1107;101323;-65
2021/05/30 17:23:24;;;;;;;1.80;1.70;;;;;;;14.88;51.82;100467.73;261806;1107;102988;-66
2021/05/30 17:28:29;;;;;;;3.70;2.53;;;;;;;14.79;51.48;100471.87;260945;1107;103075;-67
2021/05/30 17:33:34;;;;;;;3.23;2.50;;;;;;;14.72;51.87;100458.61;261914;1107;102973;-68
2021/05/30 17:38:43;;;;;;;4.08;2.08;;;;;;;14.73;52.29;100454.05;261238;1107;102941;-67
2021/05/30 17:43:47;;;;;;;2.63;1.43;;;;;;;14.73;53.59;100448.69;260832;1107;102993;-68
2021/05/30 17:48:52;;;;;;;2.23;2.08;;;;;;;14.61;54.17;100440.73;260074;1107;103030;-68
2021/05/30 17:53:56;;;;;;;2.43;2.23;;;;;;;14.58;55.03;100440.41;260157;1107;103007;-68
2021/05/30 17:59:02;;;;;;;2.40;2.20;;;;;;;14.55;55.42;100441.70;260220;1107;103059;-66
2021/05/30 18:04:06;;;;;;;2.05;1.95;;;;;;;14.48;55.06;100449.09;261126;1107;102968;-66
2021/05/30 18:09:11;;;;;;;3.38;1.98;;;;;;;14.40;55.61;100450.27;260406;1107;103098;-68
2021/05/30 18:14:15;;;;;;;3.65;2.25;;;;;;;14.38;55.72;100457.73;260699;1107;103340;-70
2021/05/30 18:19:19;;;;;;;2.33;2.13;;;;;;;14.35;55.54;100460.13;260480;1107;103066;-65
2021/05/30 18:24:24;;;;;;;3.95;2.63;;;;;;;14.33;55.94;100460.36;261162;1106;102979;-66
2021/05/30 18:29:28;;;;;;;3.88;2.50;;;;;;;14.31;56.23;100467.02;261179;1107;102993;-68
2021/05/30 18:34:33;;;;;;;3.48;2.38;;;;;;;14.27;56.53;100466.69;261167;1101;103246;-70
2021/05/30 18:39:38;;;;;;;2.40;2.20;;;;;;;14.22;56.77;100474.63;261051;1107;102971;-67
2021/05/30 18:44:42;;;;;;;7.75;2.50;;;;;;;14.14;57.11;100472.33;261728;1106;100983;-69
2021/05/30 18:49:49;;;;;;;4.60;2.90;;;;;;;14.04;56.32;100491.73;261781;1107;101696;-72
2021/05/30 18:54:56;;;;;;;4.88;2.85;;;;;;;13.95;56.32;100503.06;261133;1107;103096;-71
2021/05/30 19:00:00;;;;;;;2.33;2.13;;;;;;;13.83;55.68;100498.55;260464;1107;102966;-70
2021/05/30 19:05:06;;;;;;;3.18;2.28;;;;;;;13.71;56.19;100505.81;262232;1107;102959;-72
2021/05/30 19:10:13;;;;;;;2.23;2.03;;;;;;;13.58;55.65;100510.60;262575;1107;101461;-68
2021/05/30 19:15:20;;;;;;;2.53;2.33;;;;;;;13.45;55.86;100512.47;262231;1107;102924;-66
2021/05/30 19:20:25;;;;;;;2.53;2.20;;;;;;;13.35;56.04;100516.81;261103;1107;102967;-71
2021/05/30 19:25:30;;;;;;;1.93;1.80;;;;;;;13.23;56.25;100513.30;259968;1107;102966;-70
2021/05/30 19:30:36;;;;;;;3.25;2.15;;;;;;;13.08;55.97;100514.57;260019;1107;102968;-70
2021/05/30 19:35:39;;;;;;;4.05;2.05;;;;;;;12.94;55.91;100521.17;259923;1101;102978;-71
2021/05/30 19:40:44;;;;;;;1.75;1.65;;;;;;;12.81;56.01;100519.55;260784;1107;103070;-70
2021/05/30 19:45:49;;;;;;;3.55;2.28;;;;;;;12.70;56.27;100522.19;260088;1107;103992;-70
2021/05/30 19:50:55;;;;;;;1.90;1.80;;;;;;;12.55;55.99;100522.59;261605;1107;103054;-69
2021/05/30 19:56:02;;;;;;;2.57;1.47;;;;;;;12.42;56.19;100525.48;261416;1107;101491;-71
2021/05/30 20:01:08;;;;;;;1.90;1.73;;;;;;;12.31;56.04;100528.92;260228;1107;103043;-70
2021/05/30 20:06:13;;;;;;;3.08;2.03;;;;;;;12.21;56.16;100526.80;261219;1107;103699;-70
2021/05/30 20:11:18;;;;;;;2.38;2.18;;;;;;;12.11;55.96;100526.52;260452;1107;103096;-69
2021/05/30 20:16:23;;;;;;;2.28;2.08;;;;;;;12.02;56.39;100530.53;260135;1107;103005;-69
2021/05/30 20:21:28;;;;;;;3.35;2.55;;;;;;;11.91;56.57;100528.63;260283;1107;103635;-70
2021/05/30 20:26:37;;;;;;;2.50;2.00;;;;;;;11.82;56.88;100528.11;260340;1107;103094;-70
2021/05/30 20:31:47;;;;;;;3.43;3.13;;;;;;;11.74;56.62;100525.70;260147;1107;102965;-71
2021/05/30 20:36:57;;;;;;;2.05;1.85;;;;;;;11.64;57.09;100536.08;260602;1107;103098;-68
2021/05/30 20:42:02;;;;;;;6.03;1.78;;;;;;;11.56;57.62;100529.20;261200;1107;102957;-68
2021/05/30 20:47:08;;;;;;;2.88;1.95;;;;;;;11.49;57.77;100528.44;260173;1108;102942;-68
2021/05/30 20:52:13;;;;;;;2.05;1.90;;;;;;;11.41;58.14;100537.55;261683;1107;102997;-68
2021/05/30 20:57:17;;;;;;;3.53;2.23;;;;;;;11.30;58.53;100535.62;260160;1107;102960;-70
2021/05/30 21:02:22;;;;;;;5.08;2.10;;;;;;;11.17;58.92;100541.06;261866;1107;102986;-67
2021/05/30 21:07:26;;;;;;;3.00;2.55;;;;;;;11.11;58.92;100545.42;262634;1107;101553;-66
2021/05/30 21:12:32;;;;;;;4.93;2.45;;;;;;;11.10;58.73;100533.11;262614;1107;102879;-67
2021/05/30 21:17:36;;;;;;;2.53;1.90;;;;;;;11.11;58.69;100542.75;262687;1107;101951;-67
2021/05/30 21:22:40;;;;;;;2.55;2.35;;;;;;;11.13;59.03;100538.02;262629;1107;102417;-67
2021/05/30 21:27:45;;;;;;;2.63;1.40;;;;;;;11.12;59.22;100544.38;262334;1107;102963;-69
2021/05/30 21:32:52;;;;;;;1.88;1.78;;;;;;;11.12;59.23;100543.56;261360;1106;103045;-69
2021/05/30 21:37:57;;;;;;;3.55;2.05;;;;;;;11.10;58.88;100543.78;259957;1107;103078;-69
2021/05/30 21:43:04;;;;;;;2.73;2.40;;;;;;;11.07;59.06;100546.89;260763;1107;103126;-69
2021/05/30 21:48:09;;;;;;;2.60;1.90;;;;;;;11.02;58.63;100544.05;261003;1107;103045;-69
2021/05/30 21:53:15;;;;;;;2.85;1.58;;;;;;;10.94;58.92;100547.02;260041;1107;103110;-69
2021/05/30 21:58:24;;;;;;;3.07;1.50;;;;;;;10.82;58.74;100545.25;260966;1101;103039;-68
2021/05/30 22:03:34;;;;;;;2.18;1.03;;;;;;;10.68;58.45;100544.54;259926;1107;103093;-69
2021/05/30 22:08:39;;;;;;;5.15;1.90;;;;;;;10.55;58.87;100541.95;261104;1107;103097;-70
2021/05/30 22:13:44;;;;;;;2.15;1.88;;;;;;;10.43;58.79;100545.28;261633;1107;103051;-70
2021/05/30 22:24:13;;;;;;;3.18;2.00;;;;;;;10.15;58.18;100536.80;260736;1107;103518;-70
2021/05/30 22:29:19;;;;;;;2.08;1.80;;;;;;;10.06;58.50;100546.90;260235;1107;102998;-69
2021/05/30 22:34:24;;;;;;;1.68;1.58;;;;;;;9.95;59.10;100552.88;259935;1107;102963;-70
2021/05/30 22:39:30;;;;;;;3.60;2.10;;;;;;;9.75;59.33;100552.95;259832;1107;102964;-70
2021/05/30 22:44:35;;;;;;;6.98;2.45;;;;;;;9.55;59.45;100560.14;260999;1107;102997;-70
2021/05/30 22:49:40;;;;;;;3.30;2.90;;;;;;;9.44;60.08;100556.30;261324;1107;102967;-70
2021/05/30 22:54:45;;;;;;;2.35;2.00;;;;;;;9.36;60.17;100561.83;260981;1107;102962;-70
2021/05/30 22:59:51;;;;;;;3.68;2.40;;;;;;;9.26;60.65;100557.94;262095;1107;103096;-69
2021/05/30 23:04:56;;;;;;;2.10;1.90;;;;;;;9.17;60.37;100549.37;262181;1101;102539;-70
2021/05/30 23:10:03;;;;;;;3.30;2.67;;;;;;;9.07;61.04;100549.77;262560;1107;101122;-69
2021/05/30 23:15:10;;;;;;;3.70;1.95;;;;;;;8.95;61.34;100547.91;262616;1107;101108;-69
2021/05/30 23:20:16;;;;;;;2.47;1.77;;;;;;;8.75;61.06;100540.76;262440;1107;101252;-70
2021/05/30 23:25:22;;;;;;;3.20;1.63;;;;;;;8.54;62.06;100537.47;262669;1107;101150;-69